Details From EGNX - East Midlands
To EGHQ - Newquay
Flight Number -
Tags generated
Created
Modified
Stats Distance 198 nm / 367 km
Max Altitude 20,400 ft / 6,218 m
Waypoints 3
Social Downloads 1
Likes 0
Share VATSIM

Download

Looking for another format? Having issues loading an existing format? Contact us
Advertisement - Login to hide

Notes

Basic altitude profile: - Ascent Rate: 800ft/min - Ascent Speed: 180kts - Cruise Altitude: 13000ft - Cruise Speed: 220kts - Descent Rate: 800ft/min - Descent Speed: 180kts Options: - Use NATs: no - Use PACOTS: no - Use low airways: yes - Use high airways: no

Route

EGNX NUMPO EGHQ

ID Type Via Altitude Latitude Longitude Leg Dist Tot Dist Heading (true) Name
O EGNX APT - 0 ft / 0 m 52.83100˚ -1.32815˚ - 0 nm - East Midlands
NUMPO FIX - 20,400 ft / 6,218 m 51.61000˚ -3.28361˚ 102 nm 102 nm 225° / 224° -
O EGHQ APT - 0 ft / 0 m 50.44076˚ -4.99533˚ 95 nm 198 nm 223° / 222° Newquay

Altitude Profile

Advertisement - Login to hide

Weather


0- 5 10 15 20 25 30 35+ Temperature / ° C

Clouds and Precipitation
Forecast for 2017-12-16 12:00 UTC. Updated 24 minutes ago

Ground ~20,000 ft ~40,000 ft Winds

EGNX

Details ICAO EGNX (EMA)
Name East Midlands
Region United Kingdom
Timezone Europe/London (UTC+0.0)
Stats Elevation 306 ft / 93 m (AMSL)
Location 52.830999° -1.328155°
Runways 1
Magnetic Variation 1.033° W

METAR

EGNX 161120Z 26011KT 9999 SCT023 BKN030 02/01 Q1017

Decode

TAF

TAF EGNX 160506Z 1606/1706 28010KT CAVOK BECMG 1610/1612 BKN025 TEMPO 1611/1622 BKN012 PROB30 TEMPO 1611/1620 4000 RADZ BKN009 PROB30 1622/1706 0800 FZFG BKN000

Decode

Departure Runways

ID Width Length Bearing (true) Bearing (mag) Surface Threshold Offset Overrun Length
09 151 ft / 46 m 9,462 ft / 2,884 m 88.25° 89.28° Asphalt 587 ft / 179 m 92 ft / 28 m
27 151 ft / 46 m 9,462 ft / 2,884 m 268.29° 269.32° Asphalt 423 ft / 129 m 98 ft / 30 m

EGHQ

Details ICAO EGHQ
Name Newquay
Region United Kingdom
Timezone Europe/London (UTC+0.0)
Stats Elevation 389 ft / 119 m (AMSL)
Location 50.440759° -4.995334°
Runways 1
Magnetic Variation 2.045° W

METAR

EGHQ 161120Z 31010KT 9999 SCT032 07/01 Q1023

Decode

TAF

Not found

Destination Runways

ID Width Length Bearing (true) Bearing (mag) Surface Threshold Offset Overrun Length
12 148 ft / 45 m 9,006 ft / 2,745 m 120.58° 122.63° Asphalt 0 ft / 0 m 0 ft / 0 m
30 148 ft / 45 m 9,006 ft / 2,745 m 300.60° 302.65° Asphalt 1,014 ft / 309 m 0 ft / 0 m

Approach Navaids

Runway Type Ident Frequency Range Bearing (true) Bearing (mag) Slope Elevation
30 Localiser ISM 108.70 MHz 18 nm / 33 km 300.58° 302.62° - 390 ft / 119 m (AMSL)
30 Glidescope ISM 108.70 MHz 10 nm / 19 km 300.58° 302.62° 3.00° 390 ft / 119 m (AMSL)